CNV6 weather

Orillia/Lake St John Seaplane Base
Ontario, Canada

Public forecast

Using degrees Celsius for public forecast. Weather courtesy of forecast.io.

Closest aviation weather report (METAR) to Orillia/Lake St John Seaplane Base

Closest report is Muskoka Airport, 17.5 nm (32.4 km) N. Retrieved 2019/10/21 19:00 UTC (5 minutes ago):

CYQA 211900Z AUTO 14011G20KT 080V160 9SM CLR 16/05 A3000 RMK SLP166 DENSITY ALT 1200FT

Closest aviation forecast (TAF) to Orillia/Lake St John Seaplane Base

Closest forecast is Muskoka Airport, 17.5 nm (32.4 km) N. Retrieved 2019/10/21 20:00 UTC (0 seconds ago):

TAF CYQA 211938Z 2120/2202 14012G22KT P6SM OVC120 RMK FCST BASED ON AUTO OBS NXT FCST WILL BE ISSUED AT 221145Z